Time;durP1;ratioP1;P1;durP2;ratioP2;P2;SDS_P1;SDS_P2;PMS_P1;PMS_P2;Temp;Humidity;BMP_temperature;BMP_pressure;BME280_temperature;BME280_humidity;BME280_pressure;Samples;Min_cycle;Max_cycle;Signal;HPM_P1;HPM_P2
2023/07/23 00:01:03;;;;;;;4.10;2.73;;;;;;;18.16;65.64;150615.25;5004534;28;20271;-67
2023/07/23 00:03:29;;;;;;;4.40;2.50;;;;;;;18.17;65.36;150616.50;5003874;28;20317;-67
2023/07/23 00:05:56;;;;;;;4.80;2.27;;;;;;;18.19;65.15;150621.50;5008196;28;20229;-67
2023/07/23 00:08:23;;;;;;;3.17;2.50;;;;;;;18.47;63.06;150689.06;5005407;28;20235;-67
2023/07/23 00:10:49;;;;;;;6.23;2.57;;;;;;;18.87;61.51;150787.94;5006840;28;20248;-67
2023/07/23 00:13:16;;;;;;;6.23;2.33;;;;;;;18.79;61.43;150766.69;5005028;28;20286;-67
2023/07/23 00:15:42;;;;;;;4.63;2.10;;;;;;;18.79;61.07;150766.69;5007049;28;20237;-67
2023/07/23 00:18:10;;;;;;;4.47;2.77;;;;;;;18.76;61.55;150759.19;4999003;28;20244;-67
2023/07/23 00:20:37;;;;;;;4.27;2.60;;;;;;;18.71;61.65;150749.16;5008220;28;20230;-67
2023/07/23 00:23:03;;;;;;;3.77;2.30;;;;;;;18.59;62.50;150719.13;5007950;28;20273;-67
2023/07/23 00:25:30;;;;;;;4.17;2.43;;;;;;;18.56;62.34;150711.59;5019939;28;20238;-67
2023/07/23 00:27:56;;;;;;;2.93;2.10;;;;;;;18.69;61.15;150742.88;5008123;28;20231;-67
2023/07/23 00:30:23;;;;;;;5.30;2.10;;;;;;;18.82;61.84;150774.19;5004338;28;20765;-67
2023/07/23 00:32:50;;;;;;;3.43;2.10;;;;;;;18.78;62.61;150764.19;5006075;28;20242;-67
2023/07/23 00:35:20;;;;;;;4.70;2.58;;;;;;;18.76;62.65;150760.41;5002858;28;20427;-67
2023/07/23 00:37:46;;;;;;;4.33;2.37;;;;;;;18.76;60.87;150759.19;4995988;28;20232;-67
2023/07/23 00:40:13;;;;;;;2.70;1.90;;;;;;;19.14;59.91;150853.09;5019689;28;20611;-67
2023/07/23 00:42:39;;;;;;;4.47;2.13;;;;;;;19.11;60.82;150845.59;5007182;28;20245;-67
2023/07/23 00:45:07;;;;;;;3.47;2.10;;;;;;;19.29;59.16;150888.16;5014197;28;20229;-67
2023/07/23 00:47:34;;;;;;;3.10;2.00;;;;;;;19.30;58.94;150890.66;5003466;28;20241;-67
2023/07/23 00:50:01;;;;;;;2.87;2.37;;;;;;;19.21;59.88;150868.13;4998214;28;20291;-67
2023/07/23 00:52:29;;;;;;;3.50;2.33;;;;;;;19.23;59.24;150873.13;5004662;28;20258;-67
2023/07/23 00:54:56;;;;;;;3.07;2.10;;;;;;;19.29;59.58;150889.38;4993819;28;20253;-67
2023/07/23 00:57:23;;;;;;;3.03;2.10;;;;;;;19.15;60.08;150854.34;4988569;28;20232;-67
2023/07/23 00:59:49;;;;;;;3.13;2.17;;;;;;;19.27;59.25;150884.38;5006466;28;20235;-67
2023/07/23 01:02:16;;;;;;;5.03;2.53;;;;;;;19.25;59.58;150879.38;5001581;28;20235;-67
2023/07/23 01:04:42;;;;;;;5.00;2.60;;;;;;;19.40;57.48;150914.44;5005782;28;20231;-67
2023/07/23 01:07:11;;;;;;;3.47;2.03;;;;;;;19.46;57.91;150929.47;4991896;28;20242;-67
2023/07/23 01:09:39;;;;;;;4.63;2.00;;;;;;;19.62;57.10;150969.53;5038747;28;20748;-67
2023/07/23 01:12:07;;;;;;;3.07;2.00;;;;;;;19.74;56.37;150997.09;4990624;28;20256;-67
2023/07/23 01:14:34;;;;;;;4.10;2.20;;;;;;;20.12;55.21;151089.84;4988424;28;20701;-67
2023/07/23 01:17:01;;;;;;;3.67;2.30;;;;;;;19.88;54.98;151032.16;5006632;28;20228;-67
2023/07/23 01:19:27;;;;;;;3.57;2.03;;;;;;;19.81;55.58;151013.38;5002122;28;20236;-67
2023/07/23 01:21:59;;;;;;;3.83;2.13;;;;;;;20.02;54.84;151066.03;5005487;28;20231;-67
2023/07/23 01:24:25;;;;;;;5.67;2.17;;;;;;;20.02;54.16;151064.78;4987880;28;20235;-67
2023/07/23 01:26:54;;;;;;;4.40;2.20;;;;;;;20.14;53.67;151094.81;5021148;28;20718;-67
2023/07/23 01:29:20;;;;;;;4.63;1.87;;;;;;;20.02;54.54;151064.78;5005391;28;20219;-67
2023/07/23 01:32:12;;;;;;;2.20;1.90;;;;;;;20.10;54.19;151083.56;5003157;28;20390;-67
2023/07/23 01:34:39;;;;;;;3.00;2.10;;;;;;;20.24;53.39;151117.38;5005824;28;20229;-67
2023/07/23 01:37:07;;;;;;;3.13;2.10;;;;;;;20.13;53.82;151091.06;5004864;28;20220;-67
2023/07/23 01:39:36;;;;;;;4.10;2.40;;;;;;;20.15;53.64;151097.31;5004235;28;20239;-67
2023/07/23 01:42:03;;;;;;;5.30;2.20;;;;;;;20.08;53.78;151079.81;5006035;28;20256;-67
2023/07/23 01:44:30;;;;;;;3.43;2.00;;;;;;;20.14;53.22;151094.81;5003075;28;20795;-67
2023/07/23 01:46:57;;;;;;;5.47;2.50;;;;;;;19.91;54.31;151039.75;5009524;28;20238;-67
2023/07/23 01:49:23;;;;;;;6.23;2.00;;;;;;;19.92;54.74;151040.97;5008143;28;20714;-67
2023/07/23 01:51:53;;;;;;;7.17;2.50;;;;;;;19.92;53.29;151040.97;5004938;28;20230;-67
2023/07/23 01:54:21;;;;;;;4.90;2.20;;;;;;;19.75;54.91;151000.84;5000953;28;20239;-67
2023/07/23 01:56:52;;;;;;;3.23;2.20;;;;;;;19.96;53.53;151049.75;5006321;28;20602;-67
2023/07/23 01:59:18;;;;;;;3.27;2.10;;;;;;;20.12;53.09;151088.56;5017231;28;20220;-67
2023/07/23 02:01:45;;;;;;;3.97;2.53;;;;;;;19.94;53.68;151045.97;4994524;28;20226;-67
2023/07/23 02:04:11;;;;;;;3.30;2.10;;;;;;;19.94;53.32;151044.75;5002976;28;20235;-67
2023/07/23 02:06:38;;;;;;;3.80;2.43;;;;;;;19.73;54.17;150994.59;4996493;28;20240;-67
2023/07/23 02:09:04;;;;;;;4.27;2.30;;;;;;;19.80;53.55;151012.13;5009804;28;20699;-67
2023/07/23 02:11:32;;;;;;;3.10;2.13;;;;;;;19.83;53.67;151019.66;5001942;28;20670;-67
2023/07/23 02:13:59;;;;;;;5.60;2.30;;;;;;;19.87;52.92;151029.66;5020045;28;20255;-67
2023/07/23 02:16:26;;;;;;;3.97;2.57;;;;;;;19.81;53.55;151013.38;4993188;28;20704;-67
2023/07/23 02:18:52;;;;;;;3.13;2.47;;;;;;;19.67;53.78;150979.56;4994261;28;20231;-67
2023/07/23 02:21:19;;;;;;;4.90;2.37;;;;;;;19.65;53.76;150975.78;5008500;28;20223;-67
2023/07/23 02:23:45;;;;;;;3.67;2.30;;;;;;;19.65;53.61;150974.56;5004265;28;20223;-67
2023/07/23 02:26:12;;;;;;;3.57;2.27;;;;;;;19.57;53.73;150955.78;4993126;28;20229;-67
2023/07/23 02:28:43;;;;;;;3.67;2.53;;;;;;;19.60;53.70;150964.53;5003855;28;20232;-67
2023/07/23 02:31:10;;;;;;;3.13;2.17;;;;;;;19.56;53.63;150954.50;5005197;28;20231;-67
2023/07/23 02:33:37;;;;;;;2.93;2.20;;;;;;;19.64;53.16;150972.06;4989720;28;20606;-67
2023/07/23 02:36:04;;;;;;;3.13;2.47;;;;;;;19.66;52.93;150977.06;5002773;28;20582;-67
2023/07/23 02:38:30;;;;;;;3.13;2.20;;;;;;;19.64;52.71;150973.28;5002613;28;20236;-67
2023/07/23 02:40:57;;;;;;;4.43;2.43;;;;;;;19.68;52.54;150983.28;5020103;28;20226;-67
2023/07/23 02:43:24;;;;;;;3.67;2.40;;;;;;;19.71;52.60;150990.81;4991806;28;20244;-67
2023/07/23 02:45:52;;;;;;;3.67;2.27;;;;;;;19.74;52.01;150997.09;5005743;28;20230;-67
2023/07/23 02:48:19;;;;;;;4.33;2.20;;;;;;;19.68;52.20;150983.28;5001934;28;20275;-67
2023/07/23 02:50:45;;;;;;;3.50;2.00;;;;;;;19.87;51.88;151029.66;5003967;28;20226;-67
2023/07/23 02:53:12;;;;;;;2.53;2.00;;;;;;;19.85;51.45;151023.38;5002198;28;20706;-67
2023/07/23 02:55:38;;;;;;;4.63;2.20;;;;;;;19.88;51.77;151030.91;4995034;28;20226;-68
2023/07/23 02:58:05;;;;;;;4.83;2.17;;;;;;;19.87;51.75;151029.66;5019390;28;20228;-67
2023/07/23 03:00:32;;;;;;;4.10;2.50;;;;;;;19.73;52.70;150995.81;5002508;28;20709;-67
2023/07/23 03:03:00;;;;;;;4.00;2.17;;;;;;;19.64;52.43;150973.28;4993272;28;20235;-67
2023/07/23 03:05:26;;;;;;;4.10;2.07;;;;;;;19.74;53.01;150998.31;5005377;28;20246;-67
2023/07/23 03:07:53;;;;;;;5.17;2.37;;;;;;;19.75;52.53;150999.59;5003182;28;20235;-67
2023/07/23 03:10:20;;;;;;;7.67;2.60;;;;;;;19.68;52.71;150982.06;4994479;28;20275;-67
2023/07/23 03:12:47;;;;;;;4.57;2.70;;;;;;;19.76;51.88;151003.34;5004579;28;20228;-67
2023/07/23 03:15:13;;;;;;;6.50;2.10;;;;;;;19.79;52.95;151008.34;5000387;28;20231;-67
2023/07/23 03:17:40;;;;;;;2.40;2.07;;;;;;;19.76;52.65;151003.34;5004993;28;20619;-67
2023/07/23 03:20:10;;;;;;;3.97;2.23;;;;;;;19.66;53.27;150978.28;5018423;28;20224;-67
2023/07/23 03:22:38;;;;;;;3.33;2.20;;;;;;;19.51;53.44;150940.75;5000466;28;20235;-67
2023/07/23 03:25:05;;;;;;;2.97;2.23;;;;;;;19.58;53.67;150958.28;5003076;28;20217;-67
2023/07/23 03:27:32;;;;;;;3.27;2.13;;;;;;;19.49;54.34;150935.75;4988354;28;20276;-67
2023/07/23 03:29:59;;;;;;;4.80;2.23;;;;;;;19.51;53.56;150940.75;5004882;28;20227;-67
2023/07/23 03:32:25;;;;;;;4.37;2.20;;;;;;;19.58;53.27;150958.28;5192939;23;20226;-67
2023/07/23 03:34:52;;;;;;;2.83;2.17;;;;;;;19.61;52.75;150965.75;5021609;28;20689;-67
2023/07/23 03:37:20;;;;;;;5.17;2.20;;;;;;;19.49;53.40;150935.75;5021268;28;20236;-66
2023/07/23 03:39:47;;;;;;;5.40;2.30;;;;;;;19.44;54.24;150924.47;5028509;28;20738;-66
2023/07/23 03:42:13;;;;;;;2.53;2.23;;;;;;;19.39;53.98;150911.94;5006875;28;20767;-66
2023/07/23 03:44:40;;;;;;;2.57;1.97;;;;;;;19.15;55.03;150855.59;5001049;28;20237;-66
2023/07/23 03:47:11;;;;;;;3.97;2.20;;;;;;;19.06;55.25;150831.84;5001656;28;20233;-66
2023/07/23 03:49:38;;;;;;;4.07;2.43;;;;;;;19.22;54.17;150871.88;5008306;28;20231;-66
2023/07/23 03:52:06;;;;;;;2.93;2.20;;;;;;;19.16;54.81;150856.84;5008888;28;20722;-66
2023/07/23 03:54:35;;;;;;;4.57;2.53;;;;;;;19.16;54.27;150856.84;4996666;28;20741;-66
2023/07/23 03:57:02;;;;;;;6.17;2.50;;;;;;;19.24;54.59;150875.63;5003540;28;20679;-66
2023/07/23 03:59:30;;;;;;;2.60;2.03;;;;;;;19.44;52.87;150925.72;5012040;28;20285;-66
2023/07/23 04:01:57;;;;;;;3.73;2.20;;;;;;;19.52;52.71;150943.28;4997971;28;20237;-66
2023/07/23 04:04:28;;;;;;;4.50;2.27;;;;;;;19.42;52.83;150920.72;5010190;28;20246;-66
2023/07/23 04:06:55;;;;;;;6.63;2.53;;;;;;;19.27;54.43;150884.38;4995023;28;20220;-66
2023/07/23 04:09:21;;;;;;;3.73;2.10;;;;;;;19.22;53.56;150870.63;5009611;28;20283;-66
2023/07/23 04:11:55;;;;;;;4.03;2.40;;;;;;;19.26;53.24;150880.66;5014066;28;20227;-66
2023/07/23 04:14:22;;;;;;;4.43;2.40;;;;;;;19.43;52.57;150923.22;5006603;28;20242;-66
2023/07/23 04:16:54;;;;;;;6.50;2.23;;;;;;;19.54;52.08;150948.28;5007395;28;20645;-66
2023/07/23 04:19:21;;;;;;;5.90;2.40;;;;;;;19.56;52.45;150953.28;5012109;28;20708;-66
2023/07/23 04:21:56;;;;;;;3.63;2.20;;;;;;;19.36;53.11;150904.41;5010097;28;20248;-66
2023/07/23 04:24:22;;;;;;;5.00;2.70;;;;;;;19.42;52.21;150919.44;5000962;28;20262;-66
2023/07/23 04:26:54;;;;;;;3.53;2.40;;;;;;;19.37;53.25;150908.19;5026441;28;20233;-66
2023/07/23 04:29:21;;;;;;;4.67;2.60;;;;;;;19.35;53.05;150903.19;4988763;28;20275;-66
2023/07/23 04:31:53;;;;;;;5.43;2.20;;;;;;;19.34;52.80;150900.69;5020064;28;20307;-66
2023/07/23 04:34:20;;;;;;;3.23;2.47;;;;;;;19.31;52.65;150894.41;5020290;28;20233;-66
2023/07/23 04:36:54;;;;;;;5.20;2.60;;;;;;;19.23;53.51;150874.38;5008188;28;20602;-66
2023/07/23 04:39:21;;;;;;;5.17;2.83;;;;;;;19.35;52.60;150903.19;5011026;28;20592;-66
2023/07/23 04:41:55;;;;;;;9.50;2.77;;;;;;;19.45;52.50;150928.25;5002047;28;20610;-66
2023/07/23 04:44:21;;;;;;;6.13;2.50;;;;;;;19.43;52.33;150921.94;4990079;28;20871;-66
2023/07/23 04:46:53;;;;;;;4.47;2.57;;;;;;;19.64;51.66;150972.06;5011409;28;20235;-66
2023/07/23 04:49:20;;;;;;;4.00;2.60;;;;;;;19.61;52.24;150967.03;5005787;28;20675;-66
2023/07/23 04:51:51;;;;;;;3.10;2.27;;;;;;;19.72;51.02;150992.09;5006611;28;20225;-66
2023/07/23 04:54:17;;;;;;;3.53;2.27;;;;;;;19.74;51.87;150997.09;5000721;28;20235;-66
2023/07/23 04:56:44;;;;;;;3.70;2.60;;;;;;;19.82;51.35;151017.13;5012218;28;20632;-66
2023/07/23 04:59:11;;;;;;;5.03;2.07;;;;;;;19.91;51.49;151038.47;5013917;28;20230;-66
2023/07/23 05:01:38;;;;;;;4.53;2.30;;;;;;;19.99;51.30;151057.28;5009522;28;20231;-66
2023/07/23 05:04:05;;;;;;;3.33;2.30;;;;;;;20.08;50.65;151078.56;5015068;28;20235;-67
2023/07/23 05:06:31;;;;;;;3.70;2.50;;;;;;;20.13;50.03;151092.34;5007886;28;20314;-67
2023/07/23 05:08:58;;;;;;;3.47;2.20;;;;;;;20.21;50.77;151111.13;5000997;28;20818;-66
2023/07/23 05:11:24;;;;;;;6.90;2.47;;;;;;;20.23;50.46;151116.13;5009014;28;20329;-66
2023/07/23 05:13:51;;;;;;;2.90;2.20;;;;;;;20.33;48.76;151139.91;5011975;28;20230;-66
2023/07/23 05:16:19;;;;;;;3.77;2.57;;;;;;;20.42;49.14;151162.47;5004009;28;20219;-66
2023/07/23 05:18:45;;;;;;;4.17;2.30;;;;;;;20.36;50.25;151147.44;4996024;28;20709;-66
2023/07/23 05:21:12;;;;;;;3.73;2.23;;;;;;;20.39;50.11;151154.94;5005620;28;20716;-66
2023/07/23 05:23:39;;;;;;;4.13;2.07;;;;;;;20.40;50.43;151156.22;5006893;28;21185;-66
2023/07/23 05:26:05;;;;;;;4.20;2.40;;;;;;;20.38;51.21;151152.44;5007898;28;20252;-66
2023/07/23 05:28:32;;;;;;;2.97;2.27;;;;;;;20.34;50.33;151143.69;5002098;28;20243;-66
2023/07/23 05:30:59;;;;;;;5.20;2.10;;;;;;;20.37;50.42;151148.72;5005841;28;20322;-66
2023/07/23 05:33:27;;;;;;;6.47;2.13;;;;;;;20.38;50.52;151152.44;5011315;28;20586;-66
2023/07/23 05:35:54;;;;;;;4.10;2.10;;;;;;;20.41;50.31;151158.72;4999045;28;20240;-66
2023/07/23 05:38:20;;;;;;;5.23;2.40;;;;;;;20.47;50.31;151175.00;4997923;28;20230;-66
2023/07/23 05:40:53;;;;;;;5.57;2.13;;;;;;;20.40;50.86;151156.22;5007070;28;20224;-66
2023/07/23 05:43:20;;;;;;;4.83;2.33;;;;;;;20.42;50.66;151161.25;4999810;28;20524;-66
2023/07/23 05:45:47;;;;;;;3.53;2.07;;;;;;;20.49;50.78;151178.78;5010369;28;20864;-66
2023/07/23 05:48:13;;;;;;;5.10;2.27;;;;;;;20.44;50.49;151166.25;5006011;28;20241;-67
2023/07/23 05:50:41;;;;;;;3.80;1.80;;;;;;;20.54;50.65;151191.31;5015202;28;20615;-67
2023/07/23 05:53:08;;;;;;;2.70;2.20;;;;;;;20.59;50.66;151203.84;5009616;28;20256;-67
2023/07/23 05:55:34;;;;;;;4.23;2.10;;;;;;;20.52;50.89;151186.31;5002754;28;20698;-67
2023/07/23 05:58:01;;;;;;;3.47;2.03;;;;;;;20.39;51.98;151154.94;5006328;28;20235;-66
2023/07/23 06:00:27;;;;;;;3.10;2.10;;;;;;;20.41;51.01;151159.97;4994704;28;20234;-66
2023/07/23 06:02:55;;;;;;;2.70;1.90;;;;;;;20.37;51.82;151148.72;4998494;28;20232;-66
2023/07/23 06:05:21;;;;;;;2.93;2.20;;;;;;;20.27;52.04;151124.88;5002596;28;20232;-66
2023/07/23 06:07:49;;;;;;;7.90;2.03;;;;;;;20.26;50.69;151123.66;5006035;28;20240;-66
2023/07/23 06:10:16;;;;;;;3.13;1.90;;;;;;;20.08;52.28;151078.56;5005212;28;20228;-66
2023/07/23 06:12:42;;;;;;;3.33;2.20;;;;;;;20.05;52.89;151073.53;5006899;28;20235;-66
2023/07/23 06:15:10;;;;;;;3.17;2.20;;;;;;;20.01;52.80;151063.50;5009577;28;20232;-66
2023/07/23 06:17:37;;;;;;;2.93;1.93;;;;;;;19.99;52.63;151058.50;5004646;28;20344;-66
2023/07/23 06:20:04;;;;;;;2.63;1.80;;;;;;;20.06;51.79;151076.03;5007123;28;20635;-67
2023/07/23 06:22:30;;;;;;;3.20;2.03;;;;;;;20.14;52.51;151094.81;5007614;28;20623;-66
2023/07/23 06:24:58;;;;;;;3.23;2.00;;;;;;;20.16;51.95;151099.81;5007830;28;20225;-66
2023/07/23 06:27:25;;;;;;;3.33;2.03;;;;;;;20.32;51.42;151138.69;5006513;28;20236;-66
2023/07/23 06:29:51;;;;;;;4.03;2.27;;;;;;;20.55;50.88;151193.81;5009755;28;20224;-66
2023/07/23 06:32:18;;;;;;;2.70;2.07;;;;;;;20.73;50.56;151236.38;5004023;28;20226;-66
2023/07/23 06:34:44;;;;;;;4.67;2.03;;;;;;;20.86;50.26;151269.03;5007449;28;20239;-66
2023/07/23 06:37:11;;;;;;;2.77;1.70;;;;;;;20.81;50.88;151255.25;5005011;28;20222;-66
2023/07/23 06:39:38;;;;;;;2.90;2.10;;;;;;;20.79;51.41;151251.47;5005385;28;20255;-66
2023/07/23 06:42:06;;;;;;;4.07;2.47;;;;;;;20.68;51.91;151225.13;5001391;28;20230;-66
2023/07/23 06:44:33;;;;;;;4.67;2.13;;;;;;;20.64;51.71;151215.09;5000158;28;20242;-66
2023/07/23 06:46:59;;;;;;;3.27;2.00;;;;;;;20.59;51.71;151202.56;5006646;28;20227;-66
2023/07/23 06:49:28;;;;;;;3.73;1.80;;;;;;;20.60;51.90;151205.06;5000296;28;20230;-66
2023/07/23 06:51:56;;;;;;;3.07;2.23;;;;;;;20.48;51.91;151176.28;5003241;28;20308;-67
2023/07/23 06:54:23;;;;;;;2.70;2.17;;;;;;;20.53;52.38;151188.81;5001549;28;20237;-67
2023/07/23 06:56:54;;;;;;;2.83;1.90;;;;;;;20.50;52.06;151181.28;5004455;28;20238;-67
2023/07/23 06:59:23;;;;;;;2.57;2.13;;;;;;;20.45;51.74;151170.00;5005812;28;20238;-67
2023/07/23 07:01:54;;;;;;;3.37;2.20;;;;;;;20.38;51.82;151152.44;5002969;28;20631;-67
2023/07/23 07:04:20;;;;;;;4.30;2.20;;;;;;;20.43;51.79;151164.97;5010952;28;20604;-67
2023/07/23 07:06:50;;;;;;;3.33;2.10;;;;;;;20.32;52.60;151137.41;5016311;28;20242;-67
2023/07/23 07:09:17;;;;;;;2.97;1.90;;;;;;;20.35;51.79;151144.94;5005861;28;20230;-67
2023/07/23 07:11:43;;;;;;;4.40;2.10;;;;;;;20.34;51.77;151143.69;5004912;28;20599;-67
2023/07/23 07:14:10;;;;;;;2.83;1.80;;;;;;;20.44;51.51;151167.47;5007373;28;20228;-67
2023/07/23 07:16:38;;;;;;;2.67;2.20;;;;;;;20.42;52.55;151162.47;5002779;28;20233;-66
2023/07/23 07:19:05;;;;;;;4.33;1.73;;;;;;;20.43;52.67;151164.97;5006110;28;20241;-66
2023/07/23 07:21:31;;;;;;;5.03;2.13;;;;;;;20.46;52.71;151171.25;5003483;28;20253;-67
2023/07/23 07:23:58;;;;;;;2.53;1.87;;;;;;;20.48;52.26;151176.28;5008419;28;20233;-67
2023/07/23 07:26:24;;;;;;;2.87;1.77;;;;;;;20.62;51.65;151210.09;4999112;28;20231;-67
2023/07/23 07:28:51;;;;;;;2.63;2.00;;;;;;;20.63;51.20;151213.88;5002949;28;20247;-67
2023/07/23 07:31:18;;;;;;;3.07;2.00;;;;;;;20.68;51.22;151223.84;5001941;28;20321;-66
2023/07/23 07:33:46;;;;;;;4.10;1.70;;;;;;;20.73;51.68;151236.38;5007342;28;20242;-66
2023/07/23 07:36:13;;;;;;;3.33;2.10;;;;;;;20.69;52.18;151227.63;5002078;28;20722;-66
2023/07/23 07:38:39;;;;;;;2.70;1.97;;;;;;;20.89;51.84;151275.31;5008733;28;20216;-66
2023/07/23 07:41:06;;;;;;;3.07;1.70;;;;;;;21.00;51.32;151301.59;5000241;28;20254;-66
2023/07/23 07:43:33;;;;;;;4.30;2.10;;;;;;;21.06;51.60;151317.94;5002307;28;20238;-66
2023/07/23 07:46:00;;;;;;;2.67;2.03;;;;;;;21.21;50.97;151352.97;5002287;28;20291;-66
2023/07/23 07:48:27;;;;;;;2.40;1.70;;;;;;;21.24;49.54;151360.50;4992089;28;20225;-66
2023/07/23 07:51:03;;;;;;;2.60;1.70;;;;;;;21.31;52.19;151378.03;5006563;28;20230;-67
2023/07/23 07:53:31;;;;;;;2.90;1.80;;;;;;;21.36;50.39;151390.59;4998243;28;20242;-67
2023/07/23 07:55:59;;;;;;;3.10;1.80;;;;;;;21.30;52.37;151375.53;5005055;28;20229;-67
2023/07/23 07:58:26;;;;;;;2.97;1.70;;;;;;;21.43;52.47;151406.91;5003149;28;20228;-67
2023/07/23 08:00:54;;;;;;;2.57;2.00;;;;;;;21.55;50.73;151434.50;5003312;28;20263;-67
2023/07/23 08:03:23;;;;;;;3.70;1.97;;;;;;;21.65;51.49;151459.63;5001346;28;20724;-66
2023/07/23 08:05:50;;;;;;;4.13;2.10;;;;;;;21.80;51.20;151495.97;5003089;28;20312;-67
2023/07/23 08:08:23;;;;;;;4.27;2.07;;;;;;;22.03;50.38;151551.13;5003886;28;20597;-66
2023/07/23 08:10:50;;;;;;;2.43;1.73;;;;;;;22.55;48.94;151677.84;5002325;28;20226;-66
2023/07/23 08:13:17;;;;;;;2.83;2.20;;;;;;;22.95;49.48;151775.66;5007245;28;20242;-66
2023/07/23 08:15:44;;;;;;;4.67;2.20;;;;;;;23.61;46.99;151935.06;5007543;28;20740;-66
2023/07/23 08:18:11;;;;;;;2.30;1.80;;;;;;;24.39;44.81;152124.66;5007871;28;20298;-66
2023/07/23 08:20:39;;;;;;;3.80;1.77;;;;;;;24.50;44.76;152151.00;5005096;28;20584;-67
2023/07/23 08:23:06;;;;;;;3.57;1.63;;;;;;;24.96;46.21;152262.81;5012991;28;20234;-67
2023/07/23 08:25:35;;;;;;;4.73;1.70;;;;;;;24.76;43.00;152213.84;5009958;28;20726;-67
2023/07/23 08:28:02;;;;;;;5.73;1.40;;;;;;;24.50;44.45;152149.78;5007269;28;20227;-67
2023/07/23 08:30:30;;;;;;;2.97;1.60;;;;;;;24.34;43.79;152110.88;5009783;28;20722;-67
2023/07/23 08:32:58;;;;;;;2.80;1.63;;;;;;;23.92;44.76;152010.38;5009287;28;20232;-67
2023/07/23 08:35:25;;;;;;;2.33;1.40;;;;;;;24.23;45.10;152085.75;5005486;28;20301;-67
2023/07/23 08:37:53;;;;;;;2.60;1.80;;;;;;;24.57;43.96;152168.59;5011118;28;20552;-67
2023/07/23 08:40:20;;;;;;;3.03;1.60;;;;;;;24.28;44.86;152098.31;5004561;28;20239;-67
2023/07/23 08:43:20;;;;;;;3.67;1.60;;;;;;;24.73;42.98;152207.59;5003346;28;20776;-67
2023/07/23 08:46:20;;;;;;;3.13;1.80;;;;;;;24.23;44.50;152085.75;5011417;28;20236;-67
2023/07/23 08:49:06;;;;;;;2.10;1.50;;;;;;;24.38;44.38;152122.16;5009690;28;20696;-67
2023/07/23 08:51:36;;;;;;;2.13;1.70;;;;;;;25.02;43.37;152276.66;5002796;28;20249;-67
2023/07/23 08:54:06;;;;;;;2.43;1.60;;;;;;;24.98;43.07;152266.59;5015018;28;20222;-67
2023/07/23 08:56:33;;;;;;;2.67;1.30;;;;;;;24.64;44.02;152184.94;5012878;28;20957;-67
2023/07/23 08:59:04;;;;;;;2.23;1.83;;;;;;;24.74;43.40;152208.81;5011059;28;20580;-67
2023/07/23 09:01:34;;;;;;;1.80;1.60;;;;;;;24.63;44.25;152182.41;5006758;28;20244;-67
2023/07/23 09:04:02;;;;;;;3.07;2.00;;;;;;;25.13;42.11;152304.28;5008354;28;20666;-67
2023/07/23 09:06:30;;;;;;;2.97;1.60;;;;;;;25.28;43.90;152339.47;5008856;28;20286;-67
2023/07/23 09:09:01;;;;;;;2.37;1.50;;;;;;;25.38;42.52;152364.56;5013490;28;20237;-67
2023/07/23 09:11:29;;;;;;;3.53;1.70;;;;;;;25.07;42.39;152289.22;5000998;28;20232;-66
2023/07/23 09:13:58;;;;;;;2.80;2.03;;;;;;;25.14;43.14;152306.78;5010051;28;20242;-67
2023/07/23 09:16:26;;;;;;;4.63;2.03;;;;;;;24.80;43.82;152223.88;5005282;28;20226;-67
2023/07/23 09:18:52;;;;;;;3.37;1.90;;;;;;;24.80;44.58;152222.66;5009992;28;20223;-66
2023/07/23 09:21:23;;;;;;;1.83;1.63;;;;;;;25.09;44.74;152292.94;5003313;28;20248;-66
2023/07/23 09:23:51;;;;;;;3.60;2.00;;;;;;;25.17;43.89;152314.31;5010172;28;20239;-66
2023/07/23 09:26:20;;;;;;;3.70;2.07;;;;;;;25.07;44.12;152289.22;5011531;28;20307;-66
2023/07/23 09:28:47;;;;;;;3.47;2.00;;;;;;;25.01;43.95;152275.38;5010207;28;20300;-67
2023/07/23 09:31:22;;;;;;;3.03;1.80;;;;;;;25.20;43.22;152320.59;5006607;28;20252;-67
2023/07/23 09:33:53;;;;;;;3.20;2.30;;;;;;;25.04;43.10;152282.91;4995655;28;20232;-67
2023/07/23 09:36:21;;;;;;;3.20;2.40;;;;;;;24.61;45.01;152178.63;5005796;28;20250;-66
2023/07/23 09:38:54;;;;;;;3.37;1.90;;;;;;;24.87;44.23;152240.25;5009240;28;20611;-66
2023/07/23 09:41:20;;;;;;;2.17;1.70;;;;;;;24.88;45.07;152242.75;5004523;28;20246;-66
2023/07/23 09:43:47;;;;;;;3.63;2.33;;;;;;;25.07;44.47;152289.22;5014139;28;20235;-67
2023/07/23 09:46:14;;;;;;;2.37;2.10;;;;;;;25.78;42.88;152462.59;5010533;28;20241;-66
2023/07/23 09:48:45;;;;;;;3.30;2.33;;;;;;;25.84;41.45;152475.16;5005886;28;20226;-66
2023/07/23 09:51:13;;;;;;;7.50;2.30;;;;;;;25.66;43.19;152432.44;5006322;28;20276;-66
2023/07/23 09:53:41;;;;;;;2.80;1.93;;;;;;;26.07;43.21;152532.97;5006411;28;20229;-66
2023/07/23 09:56:09;;;;;;;3.13;2.10;;;;;;;25.87;41.22;152482.69;5002604;28;20245;-66
2023/07/23 09:58:38;;;;;;;2.60;2.30;;;;;;;26.34;39.83;152598.38;5007486;28;20232;-66
2023/07/23 10:01:05;;;;;;;4.83;2.33;;;;;;;26.60;39.80;152659.94;5008853;28;20251;-66
2023/07/23 10:03:32;;;;;;;3.50;2.10;;;;;;;26.61;41.11;152662.44;5005198;28;20237;-66
2023/07/23 10:05:59;;;;;;;2.53;2.07;;;;;;;26.11;41.14;152540.50;5000862;28;20254;-66
2023/07/23 10:08:28;;;;;;;2.97;2.03;;;;;;;26.58;42.22;152654.91;5010376;28;20888;-66
2023/07/23 10:10:55;;;;;;;2.43;2.03;;;;;;;26.03;41.41;152522.91;5006677;28;20244;-66
2023/07/23 10:13:22;;;;;;;2.97;2.40;;;;;;;25.83;42.02;152472.63;4996131;28;20230;-66
2023/07/23 10:15:50;;;;;;;4.27;2.07;;;;;;;26.04;42.30;152524.13;5006291;28;20620;-66
2023/07/23 10:18:19;;;;;;;4.50;2.10;;;;;;;26.20;40.70;152563.16;5002809;28;20370;-66
2023/07/23 10:20:46;;;;;;;2.73;2.43;;;;;;;26.35;41.83;152599.59;5008855;28;20233;-67
2023/07/23 10:23:13;;;;;;;2.93;2.07;;;;;;;26.28;41.75;152582.00;5006615;28;20255;-66
2023/07/23 10:25:41;;;;;;;3.43;2.17;;;;;;;26.06;40.79;152530.44;5004623;28;20227;-66
2023/07/23 10:28:09;;;;;;;4.23;2.20;;;;;;;26.23;41.22;152570.72;5007963;28;20240;-66
2023/07/23 10:30:37;;;;;;;2.97;2.10;;;;;;;26.24;42.13;152573.22;5009290;28;20225;-66
2023/07/23 10:33:31;;;;;;;2.80;2.37;;;;;;;26.80;39.68;152710.22;5004142;28;20339;-66
2023/07/23 10:36:03;;;;;;;5.23;2.40;;;;;;;26.87;40.49;152726.59;4997500;28;20444;-66
2023/07/23 10:38:32;;;;;;;3.30;2.30;;;;;;;26.87;40.41;152725.34;5008038;28;20723;-67
2023/07/23 10:41:00;;;;;;;2.33;2.13;;;;;;;27.31;41.61;152832.19;5006142;28;20234;-67
2023/07/23 10:43:44;;;;;;;3.33;2.47;;;;;;;27.33;40.18;152838.47;5006973;28;20326;-67
2023/07/23 10:46:12;;;;;;;2.63;2.13;;;;;;;27.50;39.02;152878.75;5004709;28;20230;-67
2023/07/23 10:48:40;;;;;;;3.50;2.33;;;;;;;27.08;40.01;152776.88;5002355;28;20230;-67
2023/07/23 10:51:09;;;;;;;3.57;2.40;;;;;;;26.66;40.81;152675.00;5004048;28;20240;-67
2023/07/23 10:53:40;;;;;;;6.20;2.53;;;;;;;27.03;39.98;152765.53;5004914;28;20242;-67
2023/07/23 10:56:24;;;;;;;4.77;2.33;;;;;;;27.49;39.08;152876.25;5002784;28;20307;-67
2023/07/23 10:58:51;;;;;;;2.50;2.28;;;;;;;27.20;38.50;152807.06;5003439;28;20223;-67
2023/07/23 11:01:22;;;;;;;4.87;2.37;;;;;;;27.14;40.17;152790.69;4995680;28;20292;-67
2023/07/23 11:03:49;;;;;;;2.97;2.10;;;;;;;26.99;40.23;152754.25;5006887;28;20227;-67
2023/07/23 11:06:26;;;;;;;4.28;2.25;;;;;;;27.37;39.89;152848.53;5007666;28;20687;-67
2023/07/23 11:08:53;;;;;;;5.03;2.57;;;;;;;27.89;39.28;152973.06;5004110;28;20231;-67
2023/07/23 11:11:28;;;;;;;2.43;1.90;;;;;;;27.40;38.55;152856.06;4988147;28;20709;-67
2023/07/23 11:13:54;;;;;;;3.60;2.40;;;;;;;26.96;39.74;152747.97;5006037;28;20285;-67
2023/07/23 11:16:21;;;;;;;2.47;2.07;;;;;;;27.55;39.53;152892.63;5003704;28;20238;-67
2023/07/23 11:18:48;;;;;;;2.50;2.17;;;;;;;27.47;39.69;152872.44;5010524;28;20244;-67
2023/07/23 11:21:17;;;;;;;3.87;2.53;;;;;;;27.07;39.07;152774.34;5005037;28;20228;-67
2023/07/23 11:23:43;;;;;;;3.43;2.23;;;;;;;27.93;39.81;152983.13;5008634;28;20237;-67
2023/07/23 11:26:11;;;;;;;4.97;2.40;;;;;;;28.12;36.56;153030.97;4999187;28;20332;-67
2023/07/23 11:28:39;;;;;;;3.47;2.38;;;;;;;28.50;38.28;153122.78;5009272;28;20323;-67